createdAt,value
2022-10-05T00:01:32.621Z,9.17
2022-10-05T00:03:42.401Z,9.14
2022-10-05T00:05:51.399Z,9.06
2022-10-05T00:08:06.197Z,8.99
2022-10-05T00:10:20.134Z,8.96
2022-10-05T00:12:34.351Z,8.89
2022-10-05T00:14:42.892Z,8.84
2022-10-05T00:16:51.508Z,8.87
2022-10-05T00:19:03.266Z,8.87
2022-10-05T00:21:31.594Z,8.91
2022-10-05T00:23:44.533Z,8.92
2022-10-05T00:25:52.981Z,8.88
2022-10-05T00:28:06.927Z,8.91
2022-10-05T00:30:18.316Z,8.83
2022-10-05T00:32:26.889Z,8.78
2022-10-05T00:34:37.630Z,8.67
2022-10-05T00:36:46.855Z,8.70
2022-10-05T00:38:58.493Z,8.67
2022-10-05T00:41:12.552Z,8.64
2022-10-05T00:43:58.315Z,8.47
2022-10-05T00:46:12.258Z,8.47
2022-10-05T00:48:28.475Z,8.32
2022-10-05T00:50:52.039Z,8.34
2022-10-05T00:53:09.282Z,8.18
2022-10-05T00:55:30.880Z,8.15
2022-10-05T00:57:50.002Z,8.20
2022-10-05T01:00:08.790Z,8.18
2022-10-05T01:02:21.339Z,8.24
2022-10-05T01:04:38.474Z,8.17
2022-10-05T01:07:00.517Z,8.13
2022-10-05T01:09:19.054Z,8.04
2022-10-05T01:11:33.603Z,7.97
2022-10-05T01:13:50.451Z,7.92
2022-10-05T01:16:09.664Z,7.87
2022-10-05T01:18:25.189Z,7.85
2022-10-05T01:20:53.391Z,7.83
2022-10-05T01:23:48.795Z,7.77
2022-10-05T01:26:10.841Z,7.68
2022-10-05T01:28:27.277Z,7.69
2022-10-05T01:30:45.862Z,7.69
2022-10-05T01:33:05.066Z,7.67
2022-10-05T01:35:26.671Z,7.67
2022-10-05T01:37:46.518Z,7.67
2022-10-05T01:40:05.931Z,7.70
2022-10-05T01:42:22.592Z,7.70
2022-10-05T01:44:41.001Z,7.74
2022-10-05T01:46:55.819Z,7.73
2022-10-05T01:49:18.851Z,7.67
2022-10-05T01:51:37.931Z,7.69
2022-10-05T01:54:01.070Z,7.66
2022-10-05T01:56:18.916Z,7.61
2022-10-05T01:58:37.061Z,7.62
2022-10-05T02:00:56.405Z,7.63
2022-10-05T02:03:12.201Z,7.55
2022-10-05T02:05:25.226Z,7.52
2022-10-05T02:07:42.043Z,7.60
2022-10-05T02:09:56.890Z,7.59
2022-10-05T02:12:11.343Z,7.53
2022-10-05T02:14:24.626Z,7.54
2022-10-05T02:16:42.100Z,7.56
2022-10-05T02:18:55.015Z,7.56
2022-10-05T02:21:04.786Z,7.56
2022-10-05T02:23:16.622Z,7.45
2022-10-05T02:25:29.439Z,7.40
2022-10-05T02:27:49.430Z,7.37
2022-10-05T02:30:02.551Z,7.31
2022-10-05T02:32:23.035Z,7.17
2022-10-05T02:34:33.238Z,7.18
2022-10-05T02:36:48.766Z,7.19
2022-10-05T02:39:07.218Z,7.17
2022-10-05T02:41:24.562Z,7.14
2022-10-05T02:43:43.474Z,7.14
2022-10-05T02:45:58.818Z,7.14
2022-10-05T02:48:18.009Z,7.14
2022-10-05T02:50:33.251Z,7.11
2022-10-05T02:52:49.472Z,7.10
2022-10-05T02:55:05.495Z,7.18
2022-10-05T02:57:22.330Z,7.22
2022-10-05T02:59:36.822Z,7.18
2022-10-05T03:01:53.433Z,7.16
2022-10-05T03:04:14.361Z,7.16
2022-10-05T03:06:28.270Z,7.18
2022-10-05T03:08:47.818Z,7.24
2022-10-05T03:11:03.025Z,7.28
2022-10-05T03:13:16.640Z,7.29
2022-10-05T03:15:58.405Z,7.18
2022-10-05T03:18:16.330Z,7.09
2022-10-05T03:20:38.362Z,7.15
2022-10-05T03:22:52.925Z,7.34
2022-10-05T03:25:29.764Z,7.51
2022-10-05T03:27:47.698Z,7.60
2022-10-05T03:30:04.520Z,7.65
2022-10-05T03:32:28.364Z,7.64
2022-10-05T03:34:41.024Z,7.61
2022-10-05T03:36:59.249Z,7.79
2022-10-05T03:39:16.200Z,7.90
2022-10-05T03:41:33.184Z,7.88
2022-10-05T03:44:08.881Z,7.85
2022-10-05T03:46:23.178Z,7.91
2022-10-05T03:48:36.465Z,7.90
2022-10-05T03:50:53.083Z,7.89
2022-10-05T03:53:08.889Z,7.74
2022-10-05T03:55:23.601Z,7.68
2022-10-05T03:57:39.668Z,7.70
2022-10-05T03:59:58.248Z,7.58
2022-10-05T04:02:09.872Z,7.46
2022-10-05T04:04:25.822Z,7.27
2022-10-05T04:06:37.781Z,7.20
2022-10-05T04:08:54.903Z,7.00
2022-10-05T04:11:08.907Z,6.81
2022-10-05T04:13:24.775Z,6.69
2022-10-05T04:15:37.717Z,6.60
2022-10-05T04:17:49.324Z,6.41
2022-10-05T04:20:03.128Z,6.32
2022-10-05T04:22:18.761Z,6.30
2022-10-05T04:24:38.536Z,6.31
2022-10-05T04:26:53.588Z,6.24
2022-10-05T04:29:09.269Z,6.25
2022-10-05T04:31:25.841Z,6.42
2022-10-05T04:33:34.836Z,6.27
2022-10-05T04:36:05.733Z,6.14
2022-10-05T04:38:28.660Z,6.18
2022-10-05T04:40:56.139Z,6.11
2022-10-05T04:43:12.502Z,5.99
2022-10-05T04:45:32.693Z,6.06
2022-10-05T04:48:11.880Z,6.03
2022-10-05T04:50:32.001Z,6.01
2022-10-05T04:52:58.428Z,5.88
2022-10-05T04:55:25.023Z,5.82
2022-10-05T04:57:44.068Z,5.72
2022-10-05T05:00:06.985Z,5.73
2022-10-05T05:02:28.639Z,5.70
2022-10-05T05:04:55.072Z,5.67
2022-10-05T05:07:19.447Z,5.61
2022-10-05T05:09:51.360Z,5.62
2022-10-05T05:12:11.001Z,5.74
2022-10-05T05:14:44.974Z,5.68
2022-10-05T05:17:01.805Z,5.63
2022-10-05T05:19:21.832Z,5.65
2022-10-05T05:21:41.689Z,5.57
2022-10-05T05:23:59.878Z,5.63
2022-10-05T05:26:15.971Z,5.62
2022-10-05T05:28:33.204Z,5.59
2022-10-05T05:30:48.824Z,5.65
2022-10-05T05:33:13.402Z,5.68
2022-10-05T05:35:47.411Z,5.71
2022-10-05T05:38:04.920Z,5.72
2022-10-05T05:40:20.667Z,5.90
2022-10-05T05:42:41.108Z,6.30
2022-10-05T05:44:55.509Z,6.41
2022-10-05T05:47:16.929Z,6.51
2022-10-05T05:49:30.585Z,6.64
2022-10-05T05:51:42.579Z,6.57
2022-10-05T05:53:56.128Z,6.48
2022-10-05T05:56:11.451Z,6.44
2022-10-05T05:58:25.885Z,6.48
2022-10-05T06:00:40.824Z,6.44
2022-10-05T06:02:57.368Z,6.52
2022-10-05T06:05:12.384Z,6.51
2022-10-05T06:07:30.339Z,6.52
2022-10-05T06:09:45.180Z,6.51
2022-10-05T06:12:07.725Z,6.59
2022-10-05T06:14:21.038Z,6.57
2022-10-05T06:16:38.128Z,6.62
2022-10-05T06:18:54.710Z,6.70
2022-10-05T06:21:06.371Z,6.65
2022-10-05T06:23:18.665Z,6.62
2022-10-05T06:25:58.600Z,6.68
2022-10-05T06:28:13.098Z,6.80
2022-10-05T06:30:26.920Z,6.91
2022-10-05T06:32:41.025Z,7.00
2022-10-05T06:35:03.786Z,7.11
2022-10-05T06:37:21.336Z,7.00
2022-10-05T06:40:00.178Z,7.05
2022-10-05T06:42:27.493Z,7.18
2022-10-05T06:45:06.511Z,7.17
2022-10-05T06:47:41.134Z,7.38
2022-10-05T06:50:16.284Z,7.57
2022-10-05T06:52:51.095Z,7.49
2022-10-05T06:55:17.226Z,7.52
2022-10-05T06:57:44.793Z,7.66
2022-10-05T07:00:01.857Z,7.79
2022-10-05T07:02:18.481Z,8.14
2022-10-05T07:04:44.923Z,8.58
2022-10-05T07:07:03.508Z,8.70
2022-10-05T07:09:30.338Z,8.77
2022-10-05T07:11:56.367Z,8.96
2022-10-05T07:14:24.240Z,9.22
2022-10-05T07:16:42.855Z,9.32
2022-10-05T07:19:08.453Z,9.35
2022-10-05T07:21:29.563Z,9.41
2022-10-05T07:23:54.502Z,9.43
2022-10-05T07:26:09.140Z,9.71
2022-10-05T07:28:23.984Z,9.85
2022-10-05T07:30:42.434Z,9.96
2022-10-05T07:33:00.425Z,10.01
2022-10-05T07:35:32.551Z,9.75
2022-10-05T07:37:59.235Z,9.84
2022-10-05T07:40:22.455Z,9.94
2022-10-05T07:42:50.533Z,10.01
2022-10-05T07:45:09.796Z,9.93
2022-10-05T07:47:24.452Z,10.34
2022-10-05T07:49:44.122Z,10.45
2022-10-05T07:51:57.621Z,10.62
2022-10-05T07:54:19.654Z,10.88
2022-10-05T07:56:38.820Z,10.89
2022-10-05T07:58:52.084Z,10.88
2022-10-05T08:01:13.071Z,11.01
2022-10-05T08:03:32.780Z,10.65
2022-10-05T08:05:47.893Z,10.61
2022-10-05T08:08:03.567Z,10.44
2022-10-05T08:10:25.945Z,10.38
2022-10-05T08:12:46.233Z,10.41
2022-10-05T08:15:00.842Z,10.58
2022-10-05T08:17:16.165Z,10.83
2022-10-05T08:19:32.582Z,10.84
2022-10-05T08:21:46.340Z,10.92
2022-10-05T08:23:58.527Z,11.12
2022-10-05T08:26:18.567Z,11.22
2022-10-05T08:28:34.780Z,11.26
2022-10-05T08:30:57.036Z,11.32
2022-10-05T08:33:10.715Z,11.50
2022-10-05T08:35:29.908Z,11.52
2022-10-05T08:37:43.564Z,11.52
2022-10-05T08:39:58.785Z,11.34
2022-10-05T08:42:42.802Z,11.20
2022-10-05T08:45:10.290Z,11.09
2022-10-05T08:47:48.368Z,11.24
2022-10-05T08:50:22.377Z,11.35
2022-10-05T08:52:32.380Z,11.45
2022-10-05T08:54:50.071Z,11.56
2022-10-05T08:57:16.938Z,11.73
2022-10-05T09:00:06.367Z,11.81
2022-10-05T09:02:34.772Z,12.34
2022-10-05T09:04:59.802Z,12.60
2022-10-05T09:07:45.851Z,13.44
2022-10-05T09:10:23.344Z,14.07
2022-10-05T09:12:50.283Z,14.38
2022-10-05T09:15:25.985Z,15.54
2022-10-05T09:18:06.168Z,16.81
2022-10-05T09:20:25.650Z,18.64
2022-10-05T09:22:58.034Z,20.20
2022-10-05T09:25:21.199Z,22.08
2022-10-05T09:27:39.814Z,23.52
2022-10-05T09:30:10.391Z,23.49
2022-10-05T09:32:51.881Z,23.64
2022-10-05T09:35:18.922Z,22.54
2022-10-05T09:37:58.945Z,22.34
2022-10-05T09:40:36.854Z,24.06
2022-10-05T09:43:19.441Z,22.59
2022-10-05T09:45:53.421Z,22.18
2022-10-05T09:48:34.085Z,23.75
2022-10-05T09:51:34.721Z,24.42
2022-10-05T09:54:18.306Z,23.43
2022-10-05T09:57:07.694Z,23.21
2022-10-05T09:59:39.031Z,23.38
2022-10-05T10:02:01.574Z,23.21
2022-10-05T10:04:30.793Z,23.36
2022-10-05T10:07:32.894Z,22.95
2022-10-05T10:09:55.428Z,23.59
2022-10-05T10:12:22.046Z,23.36
2022-10-05T10:15:11.787Z,22.92
2022-10-05T10:17:36.697Z,23.86
2022-10-05T10:20:16.901Z,24.43
2022-10-05T10:23:09.350Z,24.86
2022-10-05T10:26:05.510Z,23.41
2022-10-05T10:28:37.815Z,22.66
2022-10-05T10:31:20.036Z,22.49
2022-10-05T10:33:57.685Z,21.28
2022-10-05T10:36:08.258Z,22.00
2022-10-05T10:38:35.498Z,21.20
2022-10-05T10:41:01.427Z,21.37
2022-10-05T10:43:35.761Z,21.33
2022-10-05T10:45:56.952Z,20.44
2022-10-05T10:48:08.046Z,19.69
2022-10-05T10:50:47.327Z,18.98
2022-10-05T10:53:10.661Z,18.77
2022-10-05T10:55:40.798Z,18.69
2022-10-05T10:58:15.732Z,18.73
2022-10-05T11:00:54.516Z,18.81
2022-10-05T11:03:43.757Z,18.83
2022-10-05T11:06:17.193Z,19.01
2022-10-05T11:08:53.444Z,19.19
2022-10-05T11:11:22.629Z,19.29
2022-10-05T11:13:42.468Z,19.17
2022-10-05T11:16:23.650Z,19.34
2022-10-05T11:18:46.898Z,19.41
2022-10-05T11:21:20.311Z,19.35
2022-10-05T11:23:48.073Z,19.53
2022-10-05T11:26:14.326Z,19.81
2022-10-05T11:28:46.370Z,19.94
2022-10-05T11:31:20.188Z,19.87
2022-10-05T11:34:13.352Z,19.99
2022-10-05T11:37:06.055Z,20.13
2022-10-05T11:39:39.274Z,20.52
2022-10-05T11:42:22.678Z,20.58
2022-10-05T11:45:16.689Z,20.91
2022-10-05T11:47:29.242Z,20.90
2022-10-05T11:49:44.835Z,20.87
2022-10-05T11:52:04.889Z,20.99
2022-10-05T11:54:46.609Z,21.28
2022-10-05T11:57:09.215Z,21.48
2022-10-05T11:59:23.548Z,21.57
2022-10-05T12:01:43.033Z,21.62
2022-10-05T12:04:00.956Z,21.76
2022-10-05T12:06:29.821Z,21.70
2022-10-05T12:08:49.852Z,21.47
2022-10-05T12:11:18.513Z,21.65
2022-10-05T12:13:40.289Z,21.72
2022-10-05T12:15:55.606Z,21.89
2022-10-05T12:18:14.275Z,22.03
2022-10-05T12:20:27.604Z,22.07
2022-10-05T12:22:40.646Z,21.95
2022-10-05T12:25:05.457Z,22.09
2022-10-05T12:27:20.092Z,22.15
2022-10-05T12:29:34.014Z,22.16
2022-10-05T12:31:49.974Z,22.27
2022-10-05T12:34:11.497Z,22.44
2022-10-05T12:36:28.553Z,22.39
2022-10-05T12:38:48.899Z,22.50
2022-10-05T12:41:05.985Z,22.53
2022-10-05T12:43:22.856Z,22.55
2022-10-05T12:45:43.641Z,22.43
2022-10-05T12:48:10.199Z,22.52
2022-10-05T12:50:27.558Z,22.57
2022-10-05T12:52:51.667Z,22.59
2022-10-05T12:55:07.888Z,22.80
2022-10-05T12:57:26.549Z,22.76
2022-10-05T12:59:41.911Z,22.66
2022-10-05T13:01:57.027Z,22.74
2022-10-05T13:04:18.067Z,22.85
2022-10-05T13:06:37.933Z,22.78
2022-10-05T13:08:54.418Z,22.74
2022-10-05T13:11:15.160Z,22.68
2022-10-05T13:13:40.509Z,22.79
2022-10-05T13:15:53.937Z,22.85
2022-10-05T13:18:16.216Z,23.02
2022-10-05T13:20:32.885Z,22.79
2022-10-05T13:22:46.780Z,22.82
2022-10-05T13:25:07.766Z,22.79
2022-10-05T13:27:22.014Z,22.64
2022-10-05T13:29:36.672Z,22.78
2022-10-05T13:31:49.870Z,22.85
2022-10-05T13:34:10.458Z,22.60
2022-10-05T13:36:32.473Z,22.58
2022-10-05T13:38:56.357Z,22.65
2022-10-05T13:41:14.558Z,22.72
2022-10-05T13:43:30.817Z,22.66
2022-10-05T13:45:47.031Z,22.86
2022-10-05T13:48:10.534Z,22.78
2022-10-05T13:50:26.591Z,22.84
2022-10-05T13:52:47.265Z,22.88
2022-10-05T13:55:05.112Z,22.86
2022-10-05T13:57:27.062Z,22.87
2022-10-05T13:59:43.505Z,22.78
2022-10-05T14:02:00.310Z,22.81
2022-10-05T14:04:17.671Z,22.88
2022-10-05T14:06:30.770Z,22.75
2022-10-05T14:08:51.194Z,22.77
2022-10-05T14:11:26.640Z,22.62
2022-10-05T14:13:37.715Z,22.45
2022-10-05T14:16:04.966Z,22.36
2022-10-05T14:18:27.479Z,22.23
2022-10-05T14:20:35.863Z,22.11
2022-10-05T14:22:49.906Z,21.93
2022-10-05T14:25:06.316Z,21.94
2022-10-05T14:27:23.316Z,21.82
2022-10-05T14:29:38.868Z,21.84
2022-10-05T14:31:53.970Z,21.88
2022-10-05T14:34:30.737Z,21.89
2022-10-05T14:36:44.240Z,21.88
2022-10-05T14:39:02.243Z,21.93
2022-10-05T14:41:19.618Z,21.84
2022-10-05T14:43:30.386Z,21.81
2022-10-05T14:45:38.488Z,21.76
2022-10-05T14:47:52.035Z,21.71
2022-10-05T14:50:15.683Z,21.66
2022-10-05T14:52:34.931Z,21.67
2022-10-05T14:54:55.543Z,21.66
2022-10-05T14:57:10.277Z,21.63
2022-10-05T14:59:39.526Z,21.51
2022-10-05T15:01:55.785Z,21.64
2022-10-05T15:04:20.630Z,21.38
2022-10-05T15:06:36.182Z,21.30
2022-10-05T15:08:58.633Z,21.35
2022-10-05T15:11:11.713Z,21.30
2022-10-05T15:13:22.373Z,21.31
2022-10-05T15:15:38.492Z,21.28
2022-10-05T15:17:52.680Z,21.27
2022-10-05T15:20:09.665Z,21.36
2022-10-05T15:22:27.405Z,21.31
2022-10-05T15:24:44.090Z,21.46
2022-10-05T15:26:53.834Z,21.41
2022-10-05T15:29:14.026Z,21.20
2022-10-05T15:31:33.602Z,21.10
2022-10-05T15:33:48.130Z,21.06
2022-10-05T15:36:06.902Z,20.93
2022-10-05T15:38:26.546Z,20.93
2022-10-05T15:40:40.402Z,20.89
2022-10-05T15:42:48.809Z,20.76
2022-10-05T15:45:06.963Z,20.84
2022-10-05T15:47:25.780Z,20.65
2022-10-05T15:49:45.273Z,20.53
2022-10-05T15:52:03.300Z,20.47
2022-10-05T15:54:39.450Z,20.33
2022-10-05T15:56:55.557Z,20.22
2022-10-05T15:59:17.645Z,20.32
2022-10-05T16:01:49.859Z,20.18
2022-10-05T16:04:08.729Z,20.10
2022-10-05T16:06:38.906Z,20.10
2022-10-05T16:09:00.431Z,20.05
2022-10-05T16:11:19.137Z,19.92
2022-10-05T16:13:38.105Z,19.78
2022-10-05T16:15:51.841Z,19.71
2022-10-05T16:18:22.285Z,19.86
2022-10-05T16:20:43.945Z,19.71
2022-10-05T16:23:00.976Z,19.67
2022-10-05T16:25:12.771Z,19.59
2022-10-05T16:27:28.944Z,19.52
2022-10-05T16:29:46.817Z,19.33
2022-10-05T16:32:03.169Z,19.35
2022-10-05T16:34:27.101Z,19.37
2022-10-05T16:37:06.773Z,19.21
2022-10-05T16:39:25.071Z,19.08
2022-10-05T16:41:39.078Z,18.88
2022-10-05T16:43:54.686Z,18.73
2022-10-05T16:46:11.500Z,18.68
2022-10-05T16:48:27.546Z,18.57
2022-10-05T16:50:46.373Z,18.33
2022-10-05T16:53:03.449Z,18.13
2022-10-05T16:55:23.283Z,18.00
2022-10-05T16:57:36.297Z,17.90
2022-10-05T17:00:14.891Z,17.83
2022-10-05T17:02:50.373Z,17.79
2022-10-05T17:05:07.624Z,17.70
2022-10-05T17:07:36.000Z,17.65
2022-10-05T17:10:03.301Z,17.52
2022-10-05T17:12:32.152Z,17.50
2022-10-05T17:14:46.936Z,17.43
2022-10-05T17:17:17.396Z,17.43
2022-10-05T17:19:42.294Z,17.41
2022-10-05T17:22:00.537Z,17.34
2022-10-05T17:24:27.089Z,17.19
2022-10-05T17:26:58.004Z,17.15
2022-10-05T17:29:17.461Z,17.05
2022-10-05T17:31:25.848Z,17.02
2022-10-05T17:33:34.770Z,16.94
2022-10-05T17:36:08.626Z,16.90
2022-10-05T17:38:22.225Z,16.86
2022-10-05T17:41:06.324Z,16.92
2022-10-05T17:43:35.086Z,16.93
2022-10-05T17:46:09.180Z,16.96
2022-10-05T17:48:41.657Z,17.03
2022-10-05T17:51:03.503Z,17.08
2022-10-05T17:53:36.759Z,17.10
2022-10-05T17:55:48.752Z,17.06
2022-10-05T17:57:59.868Z,17.09
2022-10-05T18:00:51.695Z,17.09
2022-10-05T18:03:02.556Z,17.09
2022-10-05T18:05:27.910Z,17.15
2022-10-05T18:07:37.833Z,17.08
2022-10-05T18:09:57.622Z,17.05
2022-10-05T18:12:15.402Z,17.10
2022-10-05T18:14:25.565Z,17.09
2022-10-05T18:17:00.617Z,16.98
2022-10-05T18:19:18.704Z,16.84
2022-10-05T18:21:32.309Z,16.95
2022-10-05T18:23:40.684Z,16.85
2022-10-05T18:25:53.595Z,16.81
2022-10-05T18:28:20.643Z,16.71
2022-10-05T18:30:31.243Z,16.60
2022-10-05T18:33:17.694Z,16.49
2022-10-05T18:35:37.174Z,16.38
2022-10-05T18:37:55.587Z,16.21
2022-10-05T18:40:23.813Z,16.09
2022-10-05T18:42:42.512Z,16.03
2022-10-05T18:44:55.463Z,15.91
2022-10-05T18:47:12.259Z,15.84
2022-10-05T18:49:34.656Z,15.74
2022-10-05T18:51:52.214Z,15.76
2022-10-05T18:54:13.911Z,15.75
2022-10-05T18:56:31.671Z,15.64
2022-10-05T18:58:56.611Z,15.50
2022-10-05T19:01:21.346Z,15.39
2022-10-05T19:03:36.667Z,15.41
2022-10-05T19:05:50.649Z,15.31
2022-10-05T19:08:10.973Z,15.26
2022-10-05T19:10:28.079Z,15.31
2022-10-05T19:12:48.245Z,15.39
2022-10-05T19:15:06.789Z,15.25
2022-10-05T19:17:26.328Z,15.13
2022-10-05T19:19:51.357Z,15.09
2022-10-05T19:22:06.398Z,14.99
2022-10-05T19:24:37.594Z,14.95
2022-10-05T19:27:04.522Z,14.93
2022-10-05T19:29:27.254Z,14.98
2022-10-05T19:31:43.013Z,14.76
2022-10-05T19:34:13.391Z,14.89
2022-10-05T19:36:37.245Z,14.84
2022-10-05T19:38:58.352Z,14.79
2022-10-05T19:41:17.776Z,14.78
2022-10-05T19:43:39.155Z,14.71
2022-10-05T19:45:58.925Z,14.57
2022-10-05T19:48:19.167Z,14.46
2022-10-05T19:50:32.833Z,14.40
2022-10-05T19:52:49.962Z,14.37
2022-10-05T19:55:09.988Z,14.23
2022-10-05T19:57:21.499Z,14.10
2022-10-05T19:59:31.835Z,14.06
2022-10-05T20:01:40.741Z,14.00
2022-10-05T20:03:51.270Z,13.94
2022-10-05T20:06:01.344Z,13.89
2022-10-05T20:08:12.042Z,13.97
2022-10-05T20:10:31.415Z,13.96
2022-10-05T20:12:57.608Z,14.19
2022-10-05T20:15:23.094Z,14.22
2022-10-05T20:17:44.173Z,14.33
2022-10-05T20:20:04.387Z,14.41
2022-10-05T20:22:38.090Z,14.51
2022-10-05T20:24:53.665Z,14.62
2022-10-05T20:27:05.695Z,14.63
2022-10-05T20:29:16.286Z,14.55
2022-10-05T20:31:24.390Z,14.52
2022-10-05T20:33:34.405Z,14.61
2022-10-05T20:35:42.703Z,14.65
2022-10-05T20:37:50.787Z,14.65
2022-10-05T20:39:58.785Z,14.56
2022-10-05T20:42:07.423Z,14.72
2022-10-05T20:44:18.035Z,14.63
2022-10-05T20:46:25.885Z,14.60
2022-10-05T20:48:34.653Z,14.54
2022-10-05T20:50:43.882Z,14.52
2022-10-05T20:52:51.708Z,14.48
2022-10-05T20:55:00.433Z,14.43
2022-10-05T20:57:09.246Z,14.46
2022-10-05T20:59:19.873Z,14.40
2022-10-05T21:01:31.953Z,14.43
2022-10-05T21:03:42.083Z,14.43
2022-10-05T21:05:50.124Z,14.39
2022-10-05T21:07:58.326Z,14.39
2022-10-05T21:10:06.756Z,14.40
2022-10-05T21:12:16.241Z,14.35
2022-10-05T21:14:30.611Z,14.38
2022-10-05T21:16:40.869Z,14.31
2022-10-05T21:18:50.202Z,14.30
2022-10-05T21:21:02.045Z,14.24
2022-10-05T21:23:12.257Z,14.15
2022-10-05T21:25:20.392Z,14.17
2022-10-05T21:27:28.463Z,14.17
2022-10-05T21:29:41.331Z,14.17
2022-10-05T21:31:49.181Z,14.11
2022-10-05T21:33:57.263Z,14.08
2022-10-05T21:36:05.532Z,14.11
2022-10-05T21:38:13.737Z,14.00
2022-10-05T21:40:21.876Z,13.92
2022-10-05T21:42:29.876Z,13.89
2022-10-05T21:44:40.992Z,13.87
2022-10-05T21:46:50.284Z,13.78
2022-10-05T21:48:58.503Z,13.76
2022-10-05T21:51:07.829Z,13.75
2022-10-05T21:53:17.938Z,13.67
2022-10-05T21:55:25.860Z,13.62
2022-10-05T21:57:33.978Z,13.65
2022-10-05T21:59:45.843Z,13.66
2022-10-05T22:01:54.135Z,13.58
2022-10-05T22:04:02.113Z,13.56
2022-10-05T22:06:10.439Z,13.53
2022-10-05T22:08:27.303Z,13.46
2022-10-05T22:10:35.333Z,13.38
2022-10-05T22:12:43.619Z,13.34
2022-10-05T22:14:54.842Z,13.34
2022-10-05T22:17:06.227Z,13.27
2022-10-05T22:19:18.658Z,13.26
2022-10-05T22:21:26.910Z,13.24
2022-10-05T22:23:36.403Z,13.18
2022-10-05T22:25:45.240Z,13.17
2022-10-05T22:27:53.516Z,13.09
2022-10-05T22:30:04.144Z,13.06
2022-10-05T22:32:12.179Z,13.01
2022-10-05T22:34:21.499Z,13.05
2022-10-05T22:36:29.975Z,13.00
2022-10-05T22:38:38.035Z,12.98
2022-10-05T22:40:45.778Z,12.98
2022-10-05T22:42:56.287Z,12.95
2022-10-05T22:45:07.890Z,12.95
2022-10-05T22:47:15.685Z,12.95
2022-10-05T22:49:24.302Z,12.96
2022-10-05T22:51:32.458Z,13.02
2022-10-05T22:53:40.401Z,13.03
2022-10-05T22:55:48.407Z,13.01
2022-10-05T22:57:56.235Z,13.00
2022-10-05T23:00:07.177Z,12.97
2022-10-05T23:02:15.085Z,13.05
2022-10-05T23:04:23.103Z,13.04
2022-10-05T23:06:30.933Z,13.14
2022-10-05T23:08:39.988Z,13.07
2022-10-05T23:10:47.976Z,13.01
2022-10-05T23:13:01.175Z,13.01
2022-10-05T23:15:13.666Z,13.07
2022-10-05T23:17:22.869Z,13.14
2022-10-05T23:19:31.116Z,13.29
2022-10-05T23:21:39.427Z,13.32
2022-10-05T23:23:51.204Z,13.25
2022-10-05T23:26:02.697Z,13.24
2022-10-05T23:28:10.795Z,13.19
2022-10-05T23:30:21.605Z,13.15
2022-10-05T23:32:30.049Z,13.12
2022-10-05T23:34:37.896Z,13.15
2022-10-05T23:36:45.944Z,13.18
2022-10-05T23:38:54.359Z,13.14
2022-10-05T23:41:02.798Z,13.18
2022-10-05T23:43:10.922Z,13.15
2022-10-05T23:45:21.694Z,13.07
2022-10-05T23:47:29.715Z,13.04
2022-10-05T23:49:37.463Z,13.01
2022-10-05T23:51:45.430Z,12.94
2022-10-05T23:53:53.202Z,12.93
2022-10-05T23:56:01.028Z,12.91
2022-10-05T23:58:09.141Z,12.94
